createdAt,value
2018-10-07T00:00:30.309Z,35.39
2018-10-07T00:01:30.253Z,38.17
2018-10-07T00:02:30.216Z,45.22
2018-10-07T00:03:30.174Z,44.65
2018-10-07T00:04:30.165Z,48.54
2018-10-07T00:05:30.114Z,52.45
2018-10-07T00:06:30.073Z,49.97
2018-10-07T00:07:30.048Z,43.10
2018-10-07T00:08:30.001Z,42.44
2018-10-07T00:09:29.964Z,44.92
2018-10-07T00:10:29.924Z,39.76
2018-10-07T00:11:29.879Z,42.63
2018-10-07T00:12:29.841Z,42.44
2018-10-07T00:13:29.805Z,44.34
2018-10-07T00:14:29.763Z,47.66
2018-10-07T00:15:29.751Z,41.46
2018-10-07T00:16:29.714Z,40.80
2018-10-07T00:17:29.658Z,36.88
2018-10-07T00:18:29.638Z,37.17
2018-10-07T00:19:29.575Z,40.51
2018-10-07T00:20:29.575Z,42.03
2018-10-07T00:21:29.515Z,41.36
2018-10-07T00:22:29.472Z,41.84
2018-10-07T00:23:29.472Z,38.41
2018-10-07T00:24:29.402Z,35.64
2018-10-07T00:25:29.350Z,29.16
2018-10-07T00:26:29.326Z,21.44
2018-10-07T00:27:29.288Z,20.20
2018-10-07T00:28:29.246Z,22.78
2018-10-07T00:29:29.273Z,24.59
2018-10-07T00:30:29.167Z,25.92
2018-10-07T00:31:29.129Z,26.31
2018-10-07T00:34:00.912Z,22.49
2018-10-07T00:35:00.804Z,23.35
2018-10-07T00:36:53.832Z,23.64
2018-10-07T00:37:53.804Z,23.64
2018-10-07T00:39:46.999Z,29.16
2018-10-07T00:40:46.831Z,29.26
2018-10-07T00:41:46.794Z,29.55
2018-10-07T00:43:46.698Z,24.59
2018-10-07T00:44:46.668Z,27.45
2018-10-07T00:45:46.618Z,28.12
2018-10-07T00:46:46.654Z,25.73
2018-10-07T00:47:46.564Z,23.92
2018-10-07T00:48:46.527Z,25.64
2018-10-07T00:49:46.480Z,26.88
2018-10-07T00:50:46.438Z,25.73
2018-10-07T00:51:46.396Z,24.19
2018-10-07T00:52:46.365Z,21.54
2018-10-07T00:53:46.325Z,22.49
2018-10-07T00:54:46.279Z,20.68
2018-10-07T00:55:46.255Z,20.68
2018-10-07T00:56:46.222Z,18.87
2018-10-07T00:57:46.169Z,16.30
2018-10-07T00:58:46.134Z,15.44
2018-10-07T00:59:46.109Z,17.06
2018-10-07T01:00:46.052Z,17.54
2018-10-07T01:01:46.010Z,16.39
2018-10-07T01:02:45.986Z,17.06
2018-10-07T01:03:45.934Z,19.54
2018-10-07T01:04:45.896Z,25.07
2018-10-07T01:05:45.862Z,28.69
2018-10-07T01:06:45.836Z,28.58
2018-10-07T01:07:45.811Z,26.48
2018-10-07T01:08:45.757Z,26.77
2018-10-07T01:09:45.754Z,27.81
2018-10-07T01:10:45.702Z,29.05
2018-10-07T01:11:45.635Z,31.34
2018-10-07T01:12:45.593Z,31.92
2018-10-07T01:13:45.569Z,34.39
2018-10-07T01:14:45.521Z,32.37
2018-10-07T01:15:45.492Z,31.90
2018-10-07T01:16:45.478Z,30.85
2018-10-07T01:17:45.419Z,28.75
2018-10-07T01:18:45.395Z,25.52
2018-10-07T01:19:45.332Z,22.77
2018-10-07T01:20:45.302Z,22.58
2018-10-07T01:21:45.251Z,21.81
2018-10-07T01:22:45.215Z,21.81
2018-10-07T01:23:45.170Z,22.58
2018-10-07T01:24:45.137Z,21.91
2018-10-07T01:25:45.110Z,23.43
2018-10-07T01:26:45.060Z,23.72
2018-10-07T01:27:45.010Z,24.66
2018-10-07T01:28:44.980Z,25.23
2018-10-07T01:29:44.972Z,24.85
2018-10-07T01:30:44.922Z,21.61
2018-10-07T01:31:44.860Z,21.14
2018-10-07T01:32:44.844Z,20.09
2018-10-07T01:33:44.795Z,18.85
2018-10-07T01:34:44.755Z,18.47
2018-10-07T01:35:44.731Z,16.38
2018-10-07T01:36:44.675Z,17.14
2018-10-07T01:37:44.631Z,18.38
2018-10-07T01:38:44.625Z,18.86
2018-10-07T01:39:44.553Z,19.53
2018-10-07T01:40:44.512Z,17.62
2018-10-07T01:41:44.488Z,18.96
2018-10-07T01:42:44.446Z,16.67
2018-10-07T01:43:44.427Z,13.81
2018-10-07T01:44:44.388Z,13.15
2018-10-07T01:45:44.335Z,13.34
2018-10-07T01:46:44.288Z,14.58
2018-10-07T01:47:44.250Z,17.05
2018-10-07T01:48:44.225Z,19.34
2018-10-07T01:49:44.195Z,18.10
2018-10-07T01:50:44.156Z,17.14
2018-10-07T01:51:44.127Z,17.53
2018-10-07T01:52:44.056Z,19.15
2018-10-07T01:53:44.011Z,21.44
2018-10-07T01:54:43.979Z,22.56
2018-10-07T01:55:43.941Z,20.18
2018-10-07T01:56:43.911Z,20.66
2018-10-07T01:57:43.864Z,22.19
2018-10-07T01:58:43.825Z,23.52
2018-10-07T01:59:43.787Z,24.57
2018-10-07T02:00:43.753Z,25.42
2018-10-07T02:01:43.715Z,23.71
2018-10-07T02:02:43.667Z,22.38
2018-10-07T02:03:43.625Z,22.38
2018-10-07T02:04:43.587Z,23.80
2018-10-07T02:05:43.552Z,24.18
2018-10-07T02:06:43.512Z,24.57
2018-10-07T02:07:43.489Z,24.84
2018-10-07T02:08:43.461Z,25.79
2018-10-07T02:09:43.403Z,23.89
2018-10-07T02:10:43.362Z,23.79
2018-10-07T02:11:43.339Z,23.41
2018-10-07T02:12:43.306Z,20.95
2018-10-07T02:13:43.272Z,20.95
2018-10-07T02:14:43.215Z,17.23
2018-10-07T02:15:43.260Z,17.90
2018-10-07T02:16:43.134Z,19.22
2018-10-07T02:17:43.106Z,20.17
2018-10-07T02:18:43.054Z,18.38
2018-10-07T02:19:43.019Z,19.22
2018-10-07T02:20:42.972Z,18.28
2018-10-07T02:21:42.946Z,19.13
2018-10-07T02:22:42.897Z,19.98
2018-10-07T02:23:42.854Z,21.12
2018-10-07T02:24:42.852Z,21.70
2018-10-07T02:25:42.770Z,21.89
2018-10-07T02:26:42.766Z,22.74
2018-10-07T02:27:42.692Z,22.08
2018-10-07T02:28:42.666Z,17.99
2018-10-07T02:29:42.627Z,17.60
2018-10-07T02:30:42.584Z,18.18
2018-10-07T02:31:42.534Z,18.27
2018-10-07T02:32:42.503Z,19.79
2018-10-07T02:33:42.460Z,19.70
2018-10-07T02:34:42.430Z,16.94
2018-10-07T02:35:42.385Z,16.00
2018-10-07T02:36:42.342Z,16.56
2018-10-07T02:37:42.304Z,16.56
2018-10-07T02:38:42.266Z,16.66
2018-10-07T02:39:42.251Z,18.27
2018-10-07T02:40:42.184Z,19.60
2018-10-07T02:41:42.164Z,19.98
2018-10-07T02:42:42.114Z,16.85
2018-10-07T02:43:42.090Z,16.38
2018-10-07T02:44:42.056Z,15.99
2018-10-07T02:45:42.020Z,16.56
2018-10-07T02:46:41.959Z,17.70
2018-10-07T02:47:41.940Z,18.46
2018-10-07T02:48:41.888Z,17.70
2018-10-07T02:49:41.827Z,18.18
2018-10-07T02:50:41.824Z,19.03
2018-10-07T02:51:41.780Z,20.84
2018-10-07T02:52:41.749Z,21.70
2018-10-07T02:53:41.735Z,23.60
2018-10-07T02:54:41.645Z,23.41
2018-10-07T02:55:41.603Z,22.74
2018-10-07T02:56:41.574Z,22.17
2018-10-07T02:57:41.519Z,20.65
2018-10-07T02:58:41.512Z,19.32
2018-10-07T02:59:41.446Z,17.60
2018-10-07T03:00:41.407Z,16.27
2018-10-07T03:01:41.361Z,16.56
2018-10-07T03:02:41.347Z,17.60
2018-10-07T03:03:41.289Z,18.37
2018-10-07T03:04:41.295Z,16.27
2018-10-07T03:05:41.207Z,16.65
2018-10-07T03:06:41.177Z,17.41
2018-10-07T03:07:41.134Z,17.22
2018-10-07T03:08:41.095Z,17.13
2018-10-07T03:09:41.078Z,17.13
2018-10-07T03:10:41.014Z,17.80
2018-10-07T03:11:41.057Z,16.27
2018-10-07T03:12:40.943Z,16.37
2018-10-07T03:13:40.964Z,16.37
2018-10-07T03:14:40.860Z,17.03
2018-10-07T03:15:40.873Z,17.70
2018-10-07T03:16:40.790Z,18.94
2018-10-07T03:17:40.742Z,19.89
2018-10-07T03:18:40.700Z,18.37
2018-10-07T03:19:40.669Z,18.18
2018-10-07T03:20:40.641Z,19.22
2018-10-07T03:21:40.569Z,19.98
2018-10-07T03:22:40.641Z,19.70
2018-10-07T03:23:40.600Z,18.37
2018-10-07T03:24:40.506Z,15.89
2018-10-07T03:25:40.423Z,15.89
2018-10-07T03:26:40.400Z,15.99
2018-10-07T03:27:40.347Z,16.56
2018-10-07T03:28:40.306Z,15.80
2018-10-07T03:29:40.277Z,16.46
2018-10-07T03:30:40.237Z,17.51
2018-10-07T03:31:40.204Z,17.60
2018-10-07T03:32:40.165Z,18.37
2018-10-07T03:33:40.133Z,19.13
2018-10-07T03:34:40.080Z,19.42
2018-10-07T03:35:40.029Z,18.65
2018-10-07T03:36:40.044Z,16.56
2018-10-07T03:37:39.955Z,13.89
2018-10-07T03:38:39.919Z,10.66
2018-10-07T03:39:39.877Z,11.90
2018-10-07T03:40:39.857Z,14.00
2018-10-07T03:41:39.808Z,15.89
2018-10-07T03:42:39.800Z,18.37
2018-10-07T03:43:39.752Z,18.94
2018-10-07T03:44:39.683Z,18.55
2018-10-07T03:45:39.643Z,17.41
2018-10-07T03:46:39.640Z,16.46
2018-10-07T03:47:39.559Z,17.13
2018-10-07T03:48:39.527Z,19.13
2018-10-07T03:49:39.505Z,19.22
2018-10-07T03:50:39.441Z,17.80
2018-10-07T03:51:39.401Z,17.32
2018-10-07T03:52:39.383Z,16.37
2018-10-07T03:53:39.326Z,15.80
2018-10-07T03:54:39.295Z,16.56
2018-10-07T03:55:39.256Z,17.03
2018-10-07T03:56:39.224Z,16.65
2018-10-07T03:57:39.168Z,15.89
2018-10-07T03:58:39.129Z,15.42
2018-10-07T03:59:39.087Z,15.61
2018-10-07T04:00:39.070Z,16.65
2018-10-07T04:01:39.008Z,17.80
2018-10-07T04:02:38.978Z,19.22
2018-10-07T04:03:38.936Z,18.94
2018-10-07T04:04:38.904Z,18.65
2018-10-07T04:05:38.866Z,16.65
2018-10-07T04:06:38.823Z,15.61
2018-10-07T04:07:38.772Z,18.65
2018-10-07T04:08:38.734Z,20.56
2018-10-07T04:09:38.696Z,20.56
2018-10-07T04:10:38.666Z,18.46
2018-10-07T04:11:38.616Z,18.18
2018-10-07T04:12:38.613Z,17.03
2018-10-07T04:13:38.535Z,17.89
2018-10-07T04:14:38.498Z,16.56
2018-10-07T04:15:38.477Z,16.94
2018-10-07T04:16:38.426Z,17.22
2018-10-07T04:17:38.398Z,18.84
2018-10-07T04:18:38.343Z,17.22
2018-10-07T04:19:38.305Z,16.46
2018-10-07T04:20:38.263Z,15.03
2018-10-07T04:21:38.225Z,16.08
2018-10-07T04:22:38.195Z,16.37
2018-10-07T04:23:38.167Z,17.41
2018-10-07T04:24:38.110Z,17.60
2018-10-07T04:25:38.070Z,17.22
2018-10-07T04:26:38.038Z,16.17
2018-10-07T04:27:38.021Z,14.75
2018-10-07T04:28:37.969Z,12.47
2018-10-07T04:29:37.931Z,13.81
2018-10-07T04:30:37.873Z,16.27
2018-10-07T04:31:37.878Z,18.37
2018-10-07T04:32:37.799Z,20.75
2018-10-07T04:33:37.828Z,18.46
2018-10-07T04:34:37.711Z,16.56
2018-10-07T04:35:37.684Z,15.70
2018-10-07T04:36:37.628Z,14.84
2018-10-07T04:37:37.599Z,14.37
2018-10-07T04:38:37.567Z,13.42
2018-10-07T04:39:37.580Z,13.62
2018-10-07T04:40:37.500Z,15.42
2018-10-07T04:41:37.438Z,16.17
2018-10-07T04:42:37.425Z,19.03
2018-10-07T04:43:37.367Z,21.60
2018-10-07T04:44:37.339Z,21.70
2018-10-07T04:45:37.278Z,21.03
2018-10-07T04:46:37.251Z,18.65
2018-10-07T04:47:37.206Z,17.99
2018-10-07T04:48:37.171Z,18.46
2018-10-07T04:49:37.119Z,19.89
2018-10-07T04:50:37.080Z,18.84
2018-10-07T04:51:37.066Z,19.13
2018-10-07T04:52:37.034Z,19.22
2018-10-07T04:53:37.016Z,16.27
2018-10-07T04:54:36.955Z,15.42
2018-10-07T04:55:36.901Z,16.17
2018-10-07T04:56:36.861Z,17.32
2018-10-07T04:57:36.855Z,18.93
2018-10-07T04:58:36.803Z,19.02
2018-10-07T04:59:36.738Z,19.88
2018-10-07T05:00:36.710Z,20.07
2018-10-07T05:01:36.650Z,21.12
2018-10-07T05:02:36.627Z,19.78
2018-10-07T05:03:36.585Z,18.64
2018-10-07T05:04:36.562Z,17.12
2018-10-07T05:05:36.527Z,17.50
2018-10-07T05:06:36.473Z,18.94
2018-10-07T05:07:36.418Z,20.17
2018-10-07T05:08:36.404Z,16.64
2018-10-07T05:09:36.375Z,16.93
2018-10-07T05:10:36.297Z,17.22
2018-10-07T05:11:36.274Z,17.79
2018-10-07T05:12:36.236Z,19.78
2018-10-07T05:13:36.195Z,19.02
2018-10-07T05:14:36.157Z,16.55
2018-10-07T05:15:36.118Z,15.79
2018-10-07T05:16:36.075Z,16.08
2018-10-07T05:17:36.034Z,15.80
2018-10-07T05:18:35.984Z,17.12
2018-10-07T05:19:35.944Z,18.64
2018-10-07T05:20:35.892Z,16.27
2018-10-07T05:21:35.851Z,16.17
2018-10-07T05:22:35.841Z,15.50
2018-10-07T05:23:35.808Z,14.47
2018-10-07T05:24:35.754Z,13.51
2018-10-07T05:25:35.731Z,14.65
2018-10-07T05:26:35.672Z,15.61
2018-10-07T05:27:35.625Z,16.46
2018-10-07T05:28:35.582Z,16.75
2018-10-07T05:29:35.572Z,18.26
2018-10-07T05:30:35.535Z,19.40
2018-10-07T05:31:35.491Z,20.64
2018-10-07T05:32:35.441Z,21.02
2018-10-07T05:33:35.503Z,21.69
2018-10-07T05:34:35.362Z,20.73
2018-10-07T05:35:35.320Z,20.83
2018-10-07T05:36:35.280Z,21.50
2018-10-07T05:37:35.239Z,20.45
2018-10-07T05:38:35.217Z,19.69
2018-10-07T05:39:35.157Z,19.89
2018-10-07T05:40:35.129Z,19.22
2018-10-07T05:41:35.067Z,19.13
2018-10-07T05:42:35.049Z,19.32
2018-10-07T05:43:34.986Z,19.03
2018-10-07T05:44:35.143Z,18.74
2018-10-07T05:45:34.915Z,18.37
2018-10-07T05:46:34.867Z,18.46
2018-10-07T05:47:34.844Z,17.60
2018-10-07T05:48:34.783Z,17.60
2018-10-07T05:49:34.762Z,18.37
2018-10-07T05:50:34.720Z,18.27
2018-10-07T05:51:34.667Z,18.74
2018-10-07T05:52:34.635Z,20.08
2018-10-07T05:53:34.603Z,20.65
2018-10-07T05:54:34.561Z,20.46
2018-10-07T05:55:34.577Z,21.51
2018-10-07T05:56:34.496Z,21.60
2018-10-07T05:57:34.451Z,21.70
2018-10-07T05:58:34.412Z,22.36
2018-10-07T05:59:34.364Z,23.22
2018-10-07T06:00:34.372Z,23.13
2018-10-07T06:01:34.286Z,21.79
2018-10-07T06:02:34.296Z,20.18
2018-10-07T06:03:34.223Z,19.81
2018-10-07T06:04:34.173Z,20.09
2018-10-07T06:05:34.140Z,20.66
2018-10-07T06:06:34.087Z,23.61
2018-10-07T06:07:34.086Z,25.04
2018-10-07T06:08:34.072Z,25.90
2018-10-07T06:09:33.987Z,26.28
2018-10-07T06:10:33.950Z,27.33
2018-10-07T06:11:33.893Z,28.49
2018-10-07T06:12:33.860Z,28.39
2018-10-07T06:13:33.828Z,28.20
2018-10-07T06:14:33.809Z,28.67
2018-10-07T06:15:33.760Z,29.82
2018-10-07T06:16:33.709Z,30.77
2018-10-07T06:17:33.702Z,34.20
2018-10-07T06:18:33.653Z,36.87
2018-10-07T06:19:33.620Z,37.44
2018-10-07T06:20:33.559Z,37.44
2018-10-07T06:21:33.609Z,37.44
2018-10-07T06:22:33.484Z,37.65
2018-10-07T06:23:33.431Z,37.46
2018-10-07T06:24:33.406Z,36.41
2018-10-07T06:25:33.363Z,35.36
2018-10-07T06:26:33.321Z,34.41
2018-10-07T06:27:33.283Z,34.69
2018-10-07T06:28:33.261Z,36.71
2018-10-07T06:29:33.229Z,35.47
2018-10-07T06:30:33.198Z,35.76
2018-10-07T06:31:33.139Z,39.39
2018-10-07T06:32:33.085Z,39.76
2018-10-07T06:33:33.079Z,38.91
2018-10-07T06:34:33.017Z,40.15
2018-10-07T06:35:32.975Z,38.71
2018-10-07T06:36:32.954Z,41.00
2018-10-07T06:37:32.894Z,42.46
2018-10-07T06:38:32.916Z,43.96
2018-10-07T06:39:32.836Z,42.53
2018-10-07T06:40:32.801Z,48.08
2018-10-07T06:41:32.746Z,50.92
2018-10-07T06:42:32.729Z,51.31
2018-10-07T06:43:32.665Z,50.28
2018-10-07T06:44:32.658Z,50.85
2018-10-07T06:45:32.629Z,49.23
2018-10-07T06:46:32.561Z,49.80
2018-10-07T06:47:32.523Z,48.08
2018-10-07T06:48:32.490Z,46.87
2018-10-07T06:49:32.441Z,44.87
2018-10-07T06:50:32.430Z,43.33
2018-10-07T06:51:32.380Z,41.64
2018-10-07T06:52:32.357Z,42.60
2018-10-07T06:53:32.301Z,46.32
2018-10-07T06:54:32.270Z,48.04
2018-10-07T06:55:32.217Z,47.18
2018-10-07T06:56:32.191Z,48.07
2018-10-07T06:57:32.160Z,50.74
2018-10-07T06:58:32.128Z,59.05
2018-10-07T06:59:32.089Z,59.24
2018-10-07T07:00:32.044Z,66.31
2018-10-07T07:01:32.014Z,59.47
2018-10-07T07:02:31.985Z,61.19
2018-10-07T07:03:31.928Z,66.73
2018-10-07T07:04:31.923Z,71.42
2018-10-07T07:05:31.880Z,61.69
2018-10-07T07:06:31.901Z,60.35
2018-10-07T07:07:31.779Z,59.01
2018-10-07T07:08:31.745Z,59.30
2018-10-07T07:09:31.717Z,59.88
2018-10-07T07:10:31.749Z,67.66
2018-10-07T07:11:31.648Z,82.30
2018-10-07T07:12:31.625Z,89.67
2018-10-07T07:13:31.588Z,83.73
2018-10-07T07:14:31.562Z,90.15
2018-10-07T07:15:31.499Z,82.68
2018-10-07T07:16:31.472Z,85.46
2018-10-07T07:17:31.425Z,93.59
2018-10-07T07:18:31.400Z,88.81
2018-10-07T07:19:31.366Z,89.19
2018-10-07T07:20:31.336Z,97.13
2018-10-07T07:21:31.279Z,96.18
2018-10-07T07:22:31.246Z,97.42
2018-10-07T07:23:31.215Z,96.32
2018-10-07T07:24:31.190Z,95.07
2018-10-07T07:25:31.158Z,88.76
2018-10-07T07:26:31.109Z,87.90
2018-10-07T07:27:31.102Z,87.43
2018-10-07T07:28:31.060Z,82.54
2018-10-07T07:29:31.005Z,85.32
2018-10-07T07:30:30.978Z,87.71
2018-10-07T07:31:31.006Z,84.41
2018-10-07T07:32:30.906Z,84.02
2018-10-07T07:33:30.874Z,90.63
2018-10-07T07:34:30.853Z,85.65
2018-10-07T07:35:30.820Z,87.27
2018-10-07T07:36:30.779Z,83.64
2018-10-07T07:37:30.765Z,87.18
2018-10-07T07:38:30.719Z,86.51
2018-10-07T07:39:30.671Z,89.67
2018-10-07T07:40:30.643Z,86.74
2018-10-07T07:41:30.614Z,95.22
2018-10-07T07:42:30.655Z,90.34
2018-10-07T07:43:30.577Z,86.22
2018-10-07T07:44:30.507Z,89.48
2018-10-07T07:45:30.465Z,93.40
2018-10-07T07:46:30.447Z,94.36
2018-10-07T07:47:30.398Z,90.63
2018-10-07T07:48:30.376Z,94.45
2018-10-07T07:49:30.341Z,90.82
2018-10-07T07:50:30.298Z,91.44
2018-10-07T07:51:30.262Z,91.34
2018-10-07T07:52:30.235Z,91.15
2018-10-07T07:53:30.200Z,92.25
2018-10-07T07:54:30.154Z,98.19
2018-10-07T07:55:30.129Z,98.28
2018-10-07T07:56:30.089Z,93.02
2018-10-07T07:57:30.073Z,97.80
2018-10-07T07:58:30.030Z,91.77
2018-10-07T07:59:29.995Z,92.06
2018-10-07T08:00:29.967Z,92.44
2018-10-07T08:01:29.920Z,99.99
2018-10-07T08:02:29.888Z,98.96
2018-10-07T08:03:29.875Z,99.10
2018-10-07T08:04:29.825Z,98.91
2018-10-07T08:05:29.799Z,94.59
2018-10-07T08:06:29.783Z,97.76
2018-10-07T08:07:29.729Z,95.31
2018-10-07T08:08:29.713Z,93.11
2018-10-07T08:09:29.659Z,99.99
2018-10-07T08:10:29.633Z,99.99
2018-10-07T08:11:29.623Z,99.99
2018-10-07T08:12:29.559Z,99.99
2018-10-07T08:13:29.546Z,99.99
2018-10-07T08:14:29.487Z,99.99
2018-10-07T08:15:29.474Z,99.99
2018-10-07T08:16:29.453Z,99.99
2018-10-07T08:17:29.525Z,99.99
2018-10-07T08:18:29.358Z,99.99
2018-10-07T08:19:29.340Z,99.99
2018-10-07T08:20:29.300Z,99.99
2018-10-07T08:21:29.273Z,99.99
2018-10-07T08:22:29.242Z,99.99
2018-10-07T08:23:29.275Z,99.99
2018-10-07T08:24:29.185Z,99.99
2018-10-07T08:25:29.142Z,99.99
2018-10-07T08:26:29.108Z,99.99
2018-10-07T08:27:29.076Z,99.99
2018-10-07T08:28:29.053Z,99.99
2018-10-07T08:29:29.047Z,99.99
2018-10-07T08:30:28.987Z,99.99
2018-10-07T08:31:29.058Z,99.99
2018-10-07T08:32:28.927Z,99.99
2018-10-07T08:33:28.889Z,99.99
2018-10-07T08:34:28.892Z,99.99
2018-10-07T08:35:28.831Z,99.99
2018-10-07T08:36:28.815Z,99.99
2018-10-07T08:37:28.784Z,99.99
2018-10-07T08:38:28.758Z,99.99
2018-10-07T08:39:28.717Z,99.99
2018-10-07T08:40:28.695Z,99.99
2018-10-07T08:41:28.659Z,99.99
2018-10-07T08:42:28.641Z,99.99
2018-10-07T08:43:28.598Z,99.99
2018-10-07T08:44:28.574Z,99.99
2018-10-07T08:45:28.538Z,99.99
2018-10-07T08:46:28.507Z,99.99
2018-10-07T08:47:28.477Z,99.99
2018-10-07T08:48:28.447Z,99.99
2018-10-07T08:49:28.414Z,99.99
2018-10-07T08:50:28.379Z,99.99
2018-10-07T08:51:28.362Z,99.99
2018-10-07T08:52:28.337Z,99.99
2018-10-07T08:53:28.304Z,99.99
2018-10-07T08:54:28.279Z,99.99
2018-10-07T08:55:28.251Z,99.99
2018-10-07T08:56:28.246Z,99.99
2018-10-07T08:57:28.180Z,99.99
2018-10-07T08:58:28.142Z,99.99
2018-10-07T08:59:28.119Z,99.99
2018-10-07T09:00:28.120Z,99.99
2018-10-07T09:01:28.058Z,99.99
2018-10-07T09:02:28.016Z,99.99
2018-10-07T09:03:28.003Z,99.99
2018-10-07T09:04:27.980Z,99.99
2018-10-07T09:05:27.946Z,99.99
2018-10-07T09:06:27.913Z,99.99
2018-10-07T09:07:27.927Z,99.99
2018-10-07T09:08:27.851Z,99.99
2018-10-07T09:09:27.833Z,99.99
2018-10-07T09:10:27.804Z,99.99
2018-10-07T09:11:27.803Z,99.99
2018-10-07T09:12:27.812Z,99.99
2018-10-07T09:13:27.705Z,99.99
2018-10-07T09:14:27.674Z,99.99
2018-10-07T09:15:27.640Z,99.99
2018-10-07T09:16:27.600Z,99.99
2018-10-07T09:17:27.598Z,99.99
2018-10-07T09:18:27.534Z,99.99
2018-10-07T09:19:27.500Z,99.99
2018-10-07T09:20:27.471Z,99.99
2018-10-07T09:21:27.440Z,99.99
2018-10-07T09:22:27.411Z,99.99
2018-10-07T09:23:27.372Z,99.99
2018-10-07T09:24:27.335Z,99.99
2018-10-07T09:25:27.307Z,99.99
2018-10-07T09:26:27.329Z,99.99
2018-10-07T09:27:27.304Z,99.99
2018-10-07T09:28:27.219Z,99.99
2018-10-07T09:29:27.179Z,99.99
2018-10-07T09:30:27.142Z,99.99
2018-10-07T09:31:27.109Z,99.99
2018-10-07T09:32:27.150Z,99.99
2018-10-07T09:33:27.044Z,99.99
2018-10-07T09:34:27.015Z,99.99
2018-10-07T09:35:26.984Z,99.99
2018-10-07T09:36:26.945Z,99.99
2018-10-07T09:37:26.917Z,99.99
2018-10-07T09:38:26.878Z,99.99
2018-10-07T09:39:26.901Z,99.99
2018-10-07T09:40:26.821Z,99.99
2018-10-07T09:41:26.810Z,99.99
2018-10-07T09:42:27.250Z,99.99
2018-10-07T09:43:26.792Z,99.99
2018-10-07T09:44:26.678Z,99.99
2018-10-07T09:45:26.654Z,99.99
2018-10-07T09:46:26.607Z,99.99
2018-10-07T09:47:26.573Z,99.99
2018-10-07T09:48:26.542Z,99.99
2018-10-07T09:49:26.514Z,99.99
2018-10-07T09:50:26.483Z,99.99
2018-10-07T09:51:26.448Z,99.99
2018-10-07T09:52:26.479Z,99.99
2018-10-07T09:53:26.372Z,99.99
2018-10-07T09:54:26.343Z,99.99
2018-10-07T09:55:26.303Z,99.99
2018-10-07T09:56:26.269Z,99.99
2018-10-07T09:57:26.226Z,99.99
2018-10-07T09:58:26.215Z,99.99
2018-10-07T09:59:26.160Z,99.99
2018-10-07T10:00:26.122Z,99.99
2018-10-07T10:01:26.165Z,99.99
2018-10-07T10:02:26.060Z,99.99
2018-10-07T10:03:26.045Z,99.99
2018-10-07T10:04:26.004Z,99.99
2018-10-07T10:05:25.953Z,99.99
2018-10-07T10:06:25.932Z,99.99
2018-10-07T10:07:25.892Z,99.99
2018-10-07T10:08:25.917Z,99.99
2018-10-07T10:09:25.840Z,99.99
2018-10-07T10:10:25.828Z,99.99
2018-10-07T10:11:25.954Z,99.99
2018-10-07T10:12:25.754Z,99.99
2018-10-07T10:13:25.699Z,99.99
2018-10-07T10:14:25.655Z,99.99
2018-10-07T10:15:25.626Z,99.99
2018-10-07T10:16:25.627Z,99.99
2018-10-07T10:17:25.559Z,99.99
2018-10-07T10:18:25.510Z,99.99
2018-10-07T10:19:25.491Z,99.99
2018-10-07T10:20:25.447Z,99.99
2018-10-07T10:21:25.427Z,99.99
2018-10-07T10:22:25.413Z,99.99
2018-10-07T10:23:25.352Z,99.99
2018-10-07T10:24:25.339Z,99.99
2018-10-07T10:25:25.264Z,99.99
2018-10-07T10:26:25.278Z,99.99
2018-10-07T10:27:25.211Z,99.99
2018-10-07T10:28:25.182Z,99.99
2018-10-07T10:29:25.134Z,99.99
2018-10-07T10:30:25.151Z,99.99
2018-10-07T10:31:25.063Z,99.99
2018-10-07T10:32:25.013Z,99.99
2018-10-07T10:33:25.001Z,99.99
2018-10-07T10:34:25.073Z,99.99
2018-10-07T10:35:24.930Z,99.99
2018-10-07T10:36:25.124Z,99.99
2018-10-07T10:37:24.974Z,99.99
2018-10-07T10:38:24.858Z,99.99
2018-10-07T10:39:24.857Z,99.99
2018-10-07T10:40:24.791Z,99.99
2018-10-07T10:41:24.800Z,99.99
2018-10-07T10:42:24.686Z,99.99
2018-10-07T10:43:24.677Z,99.99
2018-10-07T10:44:24.633Z,99.99
2018-10-07T10:45:24.618Z,99.99
2018-10-07T10:46:24.742Z,99.99
2018-10-07T10:47:24.554Z,99.99
2018-10-07T10:48:24.470Z,99.99
2018-10-07T10:49:24.432Z,99.99
2018-10-07T10:50:24.416Z,99.99
2018-10-07T10:51:24.363Z,99.99
2018-10-07T10:52:24.333Z,99.99
2018-10-07T10:53:24.370Z,99.99
2018-10-07T10:54:24.304Z,99.99
2018-10-07T10:55:24.226Z,99.99
2018-10-07T10:56:24.218Z,99.99
2018-10-07T10:57:24.165Z,99.99
2018-10-07T10:58:24.126Z,99.99
2018-10-07T10:59:24.151Z,99.99
2018-10-07T11:00:24.075Z,99.99
2018-10-07T11:01:24.021Z,99.99
2018-10-07T11:02:24.004Z,99.99
2018-10-07T11:03:23.983Z,99.99
2018-10-07T11:04:23.977Z,99.99
2018-10-07T11:05:23.932Z,99.99
2018-10-07T11:06:23.981Z,99.99
2018-10-07T11:07:23.835Z,99.99
2018-10-07T11:08:23.776Z,99.99
2018-10-07T11:09:23.745Z,99.99
2018-10-07T11:10:23.732Z,99.99
2018-10-07T11:11:23.702Z,99.99
2018-10-07T11:12:23.676Z,99.99
2018-10-07T11:13:23.640Z,99.99
2018-10-07T11:14:23.603Z,99.99
2018-10-07T11:15:23.582Z,99.99
2018-10-07T11:16:23.517Z,99.99
2018-10-07T11:17:23.540Z,99.99
2018-10-07T11:18:23.437Z,99.99
2018-10-07T11:19:23.422Z,99.99
2018-10-07T11:20:23.360Z,99.99
2018-10-07T11:21:23.423Z,99.99
2018-10-07T11:22:23.442Z,99.99
2018-10-07T11:23:23.283Z,99.99
2018-10-07T11:24:23.276Z,99.99
2018-10-07T11:25:23.276Z,99.99
2018-10-07T11:26:23.280Z,99.99
2018-10-07T11:27:23.136Z,99.99
2018-10-07T11:28:23.141Z,99.99
2018-10-07T11:29:23.064Z,99.99
2018-10-07T11:30:23.046Z,99.99
2018-10-07T11:31:23.093Z,99.99
2018-10-07T11:32:22.993Z,99.99
2018-10-07T11:33:23.084Z,99.99
2018-10-07T11:34:22.924Z,99.99
2018-10-07T11:35:22.864Z,99.99
2018-10-07T11:36:22.808Z,99.99
2018-10-07T11:37:22.881Z,99.99
2018-10-07T11:38:22.905Z,99.99
2018-10-07T11:39:22.877Z,99.99
2018-10-07T11:40:22.806Z,99.99
2018-10-07T11:41:22.632Z,99.99
2018-10-07T11:42:22.677Z,99.99
2018-10-07T11:43:22.634Z,99.99
2018-10-07T11:44:22.611Z,99.52
2018-10-07T11:45:22.683Z,96.51
2018-10-07T11:46:22.525Z,97.13
2018-10-07T11:47:22.427Z,92.49
2018-10-07T11:48:22.450Z,93.55
2018-10-07T11:49:22.425Z,88.57
2018-10-07T11:50:22.377Z,90.96
2018-10-07T11:51:22.405Z,88.86
2018-10-07T11:52:22.365Z,86.32
2018-10-07T11:53:22.397Z,90.30
2018-10-07T11:54:22.292Z,89.34
2018-10-07T11:55:22.237Z,90.20
2018-10-07T11:56:22.183Z,90.48
2018-10-07T11:57:22.236Z,85.99
2018-10-07T11:58:22.220Z,85.03
2018-10-07T11:59:22.040Z,81.11
2018-10-07T12:00:22.174Z,80.63
2018-10-07T12:01:21.938Z,79.68
2018-10-07T12:02:21.947Z,79.39
2018-10-07T12:03:21.870Z,75.43
2018-10-07T12:04:21.807Z,75.05
2018-10-07T12:05:21.790Z,73.61
2018-10-07T12:06:21.739Z,81.74
2018-10-07T12:07:21.743Z,73.90
2018-10-07T12:08:21.684Z,72.66
2018-10-07T12:09:21.646Z,73.80
2018-10-07T12:10:21.729Z,74.85
2018-10-07T12:11:21.584Z,73.52
2018-10-07T12:12:21.524Z,67.59
2018-10-07T12:13:21.496Z,68.74
2018-10-07T12:14:21.468Z,69.31
2018-10-07T12:15:21.430Z,69.50
2018-10-07T12:16:21.460Z,67.11
2018-10-07T12:17:21.340Z,68.93
2018-10-07T12:18:21.358Z,69.31
2018-10-07T12:19:21.273Z,71.22
2018-10-07T12:20:21.314Z,67.30
2018-10-07T12:21:21.216Z,72.28
2018-10-07T12:22:21.176Z,69.50
2018-10-07T12:23:21.153Z,68.70
2018-10-07T12:24:21.144Z,66.44
2018-10-07T12:25:21.050Z,68.04
2018-10-07T12:26:21.032Z,68.70
2018-10-07T12:27:20.993Z,67.65
2018-10-07T12:28:20.963Z,71.80
2018-10-07T12:29:20.925Z,72.56
2018-10-07T12:30:20.874Z,70.33
2018-10-07T12:31:20.846Z,75.87
2018-10-07T12:32:20.869Z,74.53
2018-10-07T12:33:20.849Z,69.85
2018-10-07T12:34:20.717Z,68.41
2018-10-07T12:35:20.696Z,70.14
2018-10-07T12:36:20.648Z,72.33
2018-10-07T12:37:20.621Z,72.43
2018-10-07T12:38:20.596Z,71.28
2018-10-07T12:39:20.584Z,67.46
2018-10-07T12:40:20.677Z,68.70
2018-10-07T12:41:20.548Z,68.76
2018-10-07T12:42:20.472Z,68.48
2018-10-07T12:43:20.425Z,69.34
2018-10-07T12:44:20.367Z,67.71
2018-10-07T12:45:20.361Z,67.05
2018-10-07T12:46:20.324Z,66.56
2018-10-07T12:47:20.276Z,66.19
2018-10-07T12:48:20.238Z,68.76
2018-10-07T12:49:20.226Z,67.62
2018-10-07T12:50:20.145Z,68.38
2018-10-07T12:51:20.114Z,69.97
2018-10-07T12:52:20.071Z,66.72
2018-10-07T12:53:20.828Z,63.10
2018-10-07T12:54:20.031Z,66.06
2018-10-07T12:55:19.963Z,63.00
2018-10-07T12:56:20.032Z,61.29